Willits, CA (95490)

5:51 AM PDT on October 23, 2014 (GMT -0700)
Mendocino College Willits | Change Station
CLOSE
Current Station
Personal Weather Station
Location: Willits, CA
Elevation: 1355 ft
Nearby Weather Stations

Elev 1355 ft 39.41 °N, 123.35 °W | Updated 1 minute ago

Overcast
Overcast
53.9 °F
Feels Like 53.9 °F
N
0.0
Wind Variable Wind from West
Gusts 0.0 mph

Today
High -- | Low -- °F
--% Chance of Precip.
Yesterday
High -- | Low -- °F
Precip. -- in
7:31 AM 6:23 PM
Waning Crescent, 0% visible
Pressure 30.03 in
Visibility 10.0 miles
Clouds Mostly Cloudy 2400 ft
Overcast 12000 ft
Dew Point 53 °F
Humidity 97%
Rainfall 0.02 in
Snow Depth Not available.
UV 0 out of 12
Pollen .50 out of 12
Air Quality Not available.
Flu Activity Sporadic
SPECI KUKI 231243Z AUTO 00000KT 10SM BKN024 OVC120 14/12 A3003 RMK AO2 T01440117

More Conditions Fewer Conditions

Pressure 30.03 in
Visibility 10.0 miles
Clouds Mostly Cloudy 2400 ft
Overcast 12000 ft
Dew Point 53 °F
Humidity 97%
Rainfall 0.02 in
Snow Depth Not available.
UV 0 out of 12
Pollen .50 out of 12
Air Quality Not available.
Flu Activity Sporadic
SPECI KUKI 231243Z AUTO 00000KT 10SM BKN024 OVC120 14/12 A3003 RMK AO2 T01440117

More Conditions Fewer Conditions

10-Day Weather Forecast

Almanac

Astronomy

Oct. 23, 2014 Rise Set
Actual Time 7:31 AM PDT 6:23 PM PDT
Civil Twilight 7:04 AM PDT 6:50 PM PDT
Nautical Twilight 6:33 AM PDT 7:21 PM PDT
Astronomical Twilight 6:01 AM PDT 7:52 PM PDT
Moon 7:16 AM PDT 6:28 PM PDT
Length of Visible Light 11h 46m
Length of Day
10h 51m
Tomorrow will be 2m 24s shorter.
Waning Crescent, 0% of the Moon is Illuminated
Today
Waning Crescent
Oct 23
New
Oct 30
First Quarter
Nov 6
Full
Nov 14
Last Quarter

Today's Extremes

State Highs State Lows

Community

WunderPhotos

Upload Photos

1,764,214 photos uploaded!

Nearby

Snow Depth

Station Depth Elevation
CSS Lab 0 in 6900 ft
Independence Lake 0 in 8450 ft
Independence Camp 0 in 7000 ft
Independence Creek 0 in 6500 ft
Truckee #2 0 in 6400 ft

Earthquake Activity

City Distance Mag. Time & Date
No recent earthquake activity has been reported nearby.
Minimum magnitude displayed is 2.5.

Coastal Water Temperatures

Place Temperature
Arena Cove, CA 60.1 °F
North Spit, CA 57.9 °F
Point Reyes, CA 61.0 °F
San Francisco, CA 62.1 °F
Richmond, CA 64.0 °F

Nearby Weather Stations